Time;durP1;ratioP1;P1;durP2;ratioP2;P2;SDS_P1;SDS_P2;PMS_P1;PMS_P2;Temp;Humidity;BMP_temperature;BMP_pressure;BME280_temperature;BME280_humidity;BME280_pressure;Samples;Min_cycle;Max_cycle;Signal;HPM_P1;HPM_P2
2022/05/23 00:00:35;;;;;;;;;;;;;;;17.85;42.17;99279.44;4444369;32;34065;-64
2022/05/23 00:03:03;;;;;;;;;;;;;;;17.75;42.16;99273.28;4444173;32;35329;-67
2022/05/23 00:05:31;;;;;;;;;;;;;;;17.76;42.35;99272.31;4444836;32;32518;-64
2022/05/23 00:08:00;;;;;;;;;;;;;;;17.93;41.92;99269.41;4437234;32;33134;-66
2022/05/23 00:10:28;;;;;;;;;;;;;;;18.00;41.70;99272.25;4446014;32;34437;-68
2022/05/23 00:12:56;;;;;;;;;;;;;;;18.06;41.62;99273.44;4446328;32;33142;-65
2022/05/23 00:15:24;;;;;;;;;;;;;;;18.14;41.57;99278.84;4445524;32;33328;-65
2022/05/23 00:17:52;;;;;;;;;;;;;;;18.20;41.50;99274.56;4436914;32;35218;-64
2022/05/23 00:20:22;;;;;;;;;;;;;;;18.11;41.75;99269.19;4443353;32;33960;-65
2022/05/23 00:22:50;;;;;;;;;;;;;;;18.27;41.46;99268.28;4447493;32;34275;-63
2022/05/23 00:25:18;;;;;;;;;;;;;;;18.31;41.41;99266.91;4437842;32;33347;-63
2022/05/23 00:27:47;;;;;;;;;;;;;;;18.33;41.32;99272.13;4443722;32;33126;-65
2022/05/23 00:30:17;;;;;;;;;;;;;;;18.26;41.44;99273.84;4443201;32;34122;-67
2022/05/23 00:35:31;;;;;;;;;;;;;;;18.25;41.58;99267.59;4441578;32;33124;-66
2022/05/23 00:37:59;;;;;;;;;;;;;;;18.22;41.73;99272.53;4458570;32;34954;-68
2022/05/23 00:40:30;;;;;;;;;;;;;;;18.22;41.64;99267.94;4450268;32;34456;-67
2022/05/23 00:43:15;;;;;;;;;;;;;;;18.09;42.36;99262.25;4452129;32;34426;-75
2022/05/23 00:45:50;;;;;;;;;;;;;;;18.21;41.64;99262.72;4456818;32;34220;-67
2022/05/23 00:48:22;;;;;;;;;;;;;;;18.25;41.51;99262.19;4441105;32;34084;-67
2022/05/23 00:50:52;;;;;;;;;;;;;;;18.22;41.52;99269.81;4445712;32;34357;-65
2022/05/23 00:53:24;;;;;;;;;;;;;;;18.15;41.48;99261.56;4443054;32;33362;-67
2022/05/23 00:55:52;;;;;;;;;;;;;;;18.09;41.60;99263.09;4447461;32;33082;-65
2022/05/23 00:58:22;;;;;;;;;;;;;;;18.14;41.37;99271.53;4443398;32;33897;-65
2022/05/23 01:00:50;;;;;;;;;;;;;;;18.15;41.52;99272.38;4448161;32;34257;-65
2022/05/23 01:03:19;;;;;;;;;;;;;;;18.23;41.31;99275.03;4439938;32;34220;-66
2022/05/23 01:05:47;;;;;;;;;;;;;;;18.16;41.35;99274.91;4443129;32;33706;-65
2022/05/23 01:08:15;;;;;;;;;;;;;;;18.28;41.15;99278.09;4446107;32;35197;-68
2022/05/23 01:10:44;;;;;;;;;;;;;;;18.30;41.14;99269.78;4448859;32;34219;-67
2022/05/23 01:13:12;;;;;;;;;;;;;;;18.29;41.19;99265.38;4436888;32;33373;-66
2022/05/23 01:15:43;;;;;;;;;;;;;;;18.10;41.80;99263.94;4445918;32;32454;-66
2022/05/23 01:18:12;;;;;;;;;;;;;;;18.32;41.51;99256.91;4451130;32;34284;-65
2022/05/23 01:20:45;;;;;;;;;;;;;;;18.45;41.50;99267.19;4453115;32;34580;-64
2022/05/23 01:23:41;;;;;;;;;;;;;;;18.51;41.44;99269.19;4444647;32;36778;-64
2022/05/23 01:26:10;;;;;;;;;;;;;;;18.35;41.51;99272.81;4442459;32;32544;-64
2022/05/23 01:28:41;;;;;;;;;;;;;;;18.50;41.22;99268.34;4445266;32;34307;-65
2022/05/23 01:31:12;;;;;;;;;;;;;;;18.58;40.99;99264.72;4437723;32;34161;-66
2022/05/23 01:33:43;;;;;;;;;;;;;;;18.69;40.09;99252.66;4447437;32;34572;-64
2022/05/23 01:36:13;;;;;;;;;;;;;;;18.64;40.35;99250.47;4448093;32;32271;-64
2022/05/23 01:38:42;;;;;;;;;;;;;;;18.69;40.39;99239.94;4440439;32;33073;-64
2022/05/23 01:41:12;;;;;;;;;;;;;;;18.73;40.30;99243.16;4441096;32;35644;-64
2022/05/23 01:43:42;;;;;;;;;;;;;;;18.75;40.29;99239.25;4439260;32;33439;-65
2022/05/23 01:46:14;;;;;;;;;;;;;;;18.77;40.17;99239.91;4436808;32;33420;-65
2022/05/23 01:48:44;;;;;;;;;;;;;;;18.61;40.41;99242.69;4450612;32;32686;-64
2022/05/23 01:51:13;;;;;;;;;;;;;;;18.69;39.54;99234.53;4441185;32;35308;-64
2022/05/23 01:53:43;;;;;;;;;;;;;;;18.50;39.65;99235.81;4433825;32;34523;-63
2022/05/23 01:56:12;;;;;;;;;;;;;;;18.01;41.34;99237.88;4441548;32;32381;-64
2022/05/23 02:01:29;;;;;;;;;;;;;;;17.98;41.04;99228.28;4442229;32;34980;-63
2022/05/23 02:03:58;;;;;;;;;;;;;;;18.03;40.79;99233.16;4442877;32;34446;-66
2022/05/23 02:06:28;;;;;;;;;;;;;;;17.97;40.76;99226.56;4442765;32;33603;-64
2022/05/23 02:08:56;;;;;;;;;;;;;;;17.95;40.91;99234.03;4438928;32;34035;-63
2022/05/23 02:11:27;;;;;;;;;;;;;;;17.97;40.86;99234.69;4443986;32;34852;-65
2022/05/23 02:13:56;;;;;;;;;;;;;;;17.98;40.75;99231.00;4442100;32;33293;-66
2022/05/23 02:16:25;;;;;;;;;;;;;;;17.88;40.89;99223.06;4445370;32;33814;-63
2022/05/23 02:18:53;;;;;;;;;;;;;;;17.83;41.03;99224.59;4447423;32;33052;-64
2022/05/23 02:21:22;;;;;;;;;;;;;;;17.83;40.99;99236.28;4442394;32;35494;-66
2022/05/23 02:23:54;;;;;;;;;;;;;;;17.80;41.01;99230.38;4444961;32;34453;-64
2022/05/23 02:26:23;;;;;;;;;;;;;;;17.66;41.23;99234.59;4447825;32;33950;-64
2022/05/23 02:28:51;;;;;;;;;;;;;;;17.61;41.35;99228.84;4436702;32;34049;-63
2022/05/23 02:31:19;;;;;;;;;;;;;;;17.60;41.31;99232.59;4442441;32;34061;-67
2022/05/23 02:33:48;;;;;;;;;;;;;;;17.46;41.59;99223.28;4440807;32;34357;-64
2022/05/23 02:36:17;;;;;;;;;;;;;;;17.37;42.21;99222.47;4442991;32;33520;-63
2022/05/23 02:38:46;;;;;;;;;;;;;;;17.53;41.76;99218.03;4445164;32;34119;-64
2022/05/23 02:41:13;;;;;;;;;;;;;;;17.59;41.60;99225.47;4434547;32;33943;-65
2022/05/23 02:43:42;;;;;;;;;;;;;;;17.66;41.30;99226.47;4440767;32;33466;-64
2022/05/23 02:46:12;;;;;;;;;;;;;;;17.40;41.68;99226.69;4441412;32;33228;-65
2022/05/23 02:48:46;;;;;;;;;;;;;;;17.50;41.54;99213.00;4454626;32;33705;-64
2022/05/23 02:51:14;;;;;;;;;;;;;;;17.64;41.34;99223.09;4460973;32;34169;-64
2022/05/23 02:53:45;;;;;;;;;;;;;;;17.69;41.30;99216.16;4444288;32;33252;-64
2022/05/23 02:56:13;;;;;;;;;;;;;;;17.49;41.74;99219.41;4445551;32;33388;-64
2022/05/23 02:58:42;;;;;;;;;;;;;;;17.62;41.32;99219.69;4443423;32;34174;-64
2022/05/23 03:01:13;;;;;;;;;;;;;;;17.63;40.98;99224.13;4449995;32;33554;-64
2022/05/23 03:03:42;;;;;;;;;;;;;;;17.53;41.49;99223.44;4447041;32;34560;-67
2022/05/23 03:06:10;;;;;;;;;;;;;;;17.59;41.29;99220.91;4447232;32;34318;-65
2022/05/23 03:08:38;;;;;;;;;;;;;;;17.51;41.40;99225.50;4448402;32;36554;-65
2022/05/23 03:11:08;;;;;;;;;;;;;;;17.26;42.34;99222.81;4448789;32;35574;-67
2022/05/23 03:13:36;;;;;;;;;;;;;;;17.50;41.68;99223.81;4444140;32;34597;-62
2022/05/23 03:16:13;;;;;;;;;;;;;;;17.56;41.59;99229.38;4445296;32;31908;-66
2022/05/23 03:18:42;;;;;;;;;;;;;;;17.33;42.36;99231.91;4445699;32;34170;-65
2022/05/23 03:26:58;;;;;;;;;;;;;;;17.50;42.09;99232.78;4444150;32;34209;-64
2022/05/23 03:27:00;;;;;;;;;;;;;;;17.61;41.78;99223.44;4448727;32;34746;-66
2022/05/23 03:29:30;;;;;;;;;;;;;;;17.61;41.58;99226.16;4448455;32;34873;-63
2022/05/23 03:31:58;;;;;;;;;;;;;;;17.45;41.94;99225.16;4446882;32;35232;-66
2022/05/23 03:34:35;;;;;;;;;;;;;;;17.40;41.92;99229.41;4445588;32;35254;-66
2022/05/23 03:37:21;;;;;;;;;;;;;;;17.44;41.50;99230.75;4448787;32;32305;-65
2022/05/23 03:39:50;;;;;;;;;;;;;;;17.46;41.20;99231.41;4447406;32;34062;-65
2022/05/23 03:42:19;;;;;;;;;;;;;;;17.40;41.21;99227.53;4444974;32;32941;-63
2022/05/23 03:44:51;;;;;;;;;;;;;;;17.33;41.39;99237.31;4436452;32;33204;-65
2022/05/23 03:47:20;;;;;;;;;;;;;;;17.42;41.31;99233.59;4439767;32;33659;-64
2022/05/23 03:49:48;;;;;;;;;;;;;;;17.43;41.32;99235.31;4442309;32;33940;-64
2022/05/23 03:52:16;;;;;;;;;;;;;;;17.49;41.26;99232.91;4445979;32;34452;-65
2022/05/23 03:54:47;;;;;;;;;;;;;;;17.55;41.09;99232.25;4446607;32;33211;-64
2022/05/23 03:57:15;;;;;;;;;;;;;;;17.67;40.83;99230.87;4447499;32;32629;-66
2022/05/23 03:59:45;;;;;;;;;;;;;;;17.65;40.65;99231.03;4442813;32;34872;-68
2022/05/23 04:02:13;;;;;;;;;;;;;;;17.70;40.72;99235.94;4445641;32;34033;-68
2022/05/23 04:04:41;;;;;;;;;;;;;;;17.72;40.75;99228.50;4446491;32;32338;-67
2022/05/23 04:07:15;;;;;;;;;;;;;;;17.80;40.47;99228.50;4442070;32;33576;-66
2022/05/23 04:09:45;;;;;;;;;;;;;;;17.86;40.14;99226.97;4435349;32;35293;-66
2022/05/23 04:12:14;;;;;;;;;;;;;;;17.76;40.53;99227.12;4436306;32;35716;-67
2022/05/23 04:14:45;;;;;;;;;;;;;;;17.93;40.42;99230.66;4444504;32;34430;-68
2022/05/23 04:17:14;;;;;;;;;;;;;;;18.07;40.39;99226.38;4445898;32;32264;-69
2022/05/23 04:19:42;;;;;;;;;;;;;;;18.13;40.31;99231.06;4450352;32;34520;-67
2022/05/23 04:22:12;;;;;;;;;;;;;;;18.14;40.38;99227.38;4437852;32;34311;-68
2022/05/23 04:24:50;;;;;;;;;;;;;;;18.20;40.63;99226.63;4440457;32;33182;-66
2022/05/23 04:27:19;;;;;;;;;;;;;;;18.30;40.63;99221.03;4442782;32;32214;-66
2022/05/23 04:29:48;;;;;;;;;;;;;;;18.43;40.09;99223.16;4450613;32;35179;-64
2022/05/23 04:35:15;;;;;;;;;;;;;;;18.61;39.97;99218.31;4446959;32;34614;-66
2022/05/23 04:37:45;;;;;;;;;;;;;;;18.46;40.99;99222.78;4442253;32;33145;-64
2022/05/23 04:40:15;;;;;;;;;;;;;;;18.61;41.10;99218.31;4447285;32;33908;-68
2022/05/23 04:42:47;;;;;;;;;;;;;;;18.94;39.01;99220.81;4435678;32;35645;-65
2022/05/23 04:45:16;;;;;;;;;;;;;;;18.96;38.76;99216.91;4444616;32;34227;-68
2022/05/23 04:50:33;;;;;;;;;;;;;;;18.57;39.81;99222.41;4445279;32;33965;-63
2022/05/23 04:53:02;;;;;;;;;;;;;;;18.54;39.98;99239.84;4450924;32;33817;-64
2022/05/23 04:55:33;;;;;;;;;;;;;;;18.57;40.10;99233.25;4443003;32;33970;-64
2022/05/23 04:58:02;;;;;;;;;;;;;;;18.77;40.00;99241.78;4443356;32;34955;-66
2022/05/23 05:00:30;;;;;;;;;;;;;;;18.81;39.84;99237.69;4441613;32;34014;-64
2022/05/23 05:03:04;;;;;;;;;;;;;;;18.87;39.66;99233.41;4450376;32;34323;-65
2022/05/23 05:05:33;;;;;;;;;;;;;;;18.99;39.39;99240.09;4441841;32;34603;-65
2022/05/23 05:08:02;;;;;;;;;;;;;;;18.91;39.78;99251.00;4441601;32;33587;-63
2022/05/23 05:10:31;;;;;;;;;;;;;;;19.17;39.77;99245.22;4437191;32;36270;-63
2022/05/23 05:13:03;;;;;;;;;;;;;;;19.34;40.05;99238.63;4440231;32;36787;-64
2022/05/23 05:15:31;;;;;;;;;;;;;;;19.49;39.33;99241.38;4437998;32;33516;-65
2022/05/23 05:17:59;;;;;;;;;;;;;;;19.69;39.96;99247.16;4440605;32;34396;-64
2022/05/23 05:20:29;;;;;;;;;;;;;;;19.84;39.51;99249.88;4437972;32;32553;-66
2022/05/23 05:23:00;;;;;;;;;;;;;;;19.88;39.74;99246.59;4446190;32;35497;-64
2022/05/23 05:25:29;;;;;;;;;;;;;;;19.73;39.17;99241.16;4444773;32;34620;-63
2022/05/23 05:27:57;;;;;;;;;;;;;;;19.82;39.92;99243.78;4440973;32;35001;-63
2022/05/23 05:30:25;;;;;;;;;;;;;;;19.82;38.95;99239.19;4439610;32;34305;-66
2022/05/23 05:32:59;;;;;;;;;;;;;;;20.06;39.22;99239.94;4445147;32;32438;-65
2022/05/23 05:35:46;;;;;;;;;;;;;;;20.41;38.87;99250.03;4435772;32;34020;-63
2022/05/23 05:38:20;;;;;;;;;;;;;;;20.06;39.13;99248.09;4440278;32;34167;-63
2022/05/23 05:40:50;;;;;;;;;;;;;;;20.33;38.44;99252.03;4438594;32;34086;-65
2022/05/23 05:43:20;;;;;;;;;;;;;;;19.67;38.79;99239.19;4439900;32;34496;-65
2022/05/23 05:45:58;;;;;;;;;;;;;;;20.31;38.99;99244.03;4438991;32;34358;-66
2022/05/23 05:48:29;;;;;;;;;;;;;;;20.78;38.81;99250.06;4452764;32;32564;-66
2022/05/23 05:50:57;;;;;;;;;;;;;;;20.62;38.02;99249.28;4447126;32;34161;-65
2022/05/23 05:53:28;;;;;;;;;;;;;;;20.79;37.40;99247.16;4443432;32;34104;-66
2022/05/23 05:55:56;;;;;;;;;;;;;;;20.74;37.99;99243.31;4437492;32;33990;-65
2022/05/23 05:58:24;;;;;;;;;;;;;;;20.72;37.84;99246.25;4437463;32;34678;-67
2022/05/23 06:00:53;;;;;;;;;;;;;;;21.06;37.55;99256.44;4438382;32;32500;-65
2022/05/23 06:03:21;;;;;;;;;;;;;;;21.01;35.34;99253.44;4440700;32;34264;-67
2022/05/23 06:11:26;;;;;;;;;;;;;;;20.88;33.68;99251.44;4440874;32;35322;-65
2022/05/23 06:13:58;;;;;;;;;;;;;;;20.92;34.05;99260.88;4440758;32;33399;-66
2022/05/23 06:16:34;;;;;;;;;;;;;;;21.09;33.74;99253.34;4436006;32;33354;-66
2022/05/23 06:19:02;;;;;;;;;;;;;;;20.35;34.43;99258.09;4441944;32;33135;-65
2022/05/23 06:21:31;;;;;;;;;;;;;;;20.40;35.08;99261.94;4439567;32;33094;-66
2022/05/23 06:23:59;;;;;;;;;;;;;;;20.94;34.29;99258.00;4441946;32;34487;-66
2022/05/23 06:26:33;;;;;;;;;;;;;;;20.81;34.17;99266.84;4440301;32;34480;-65
2022/05/23 06:29:02;;;;;;;;;;;;;;;20.95;33.00;99265.09;4442746;32;31187;-65
2022/05/23 06:31:31;;;;;;;;;;;;;;;21.13;33.02;99262.78;4439472;32;32894;-66
2022/05/23 06:34:00;;;;;;;;;;;;;;;21.33;33.41;99264.84;4437032;32;34403;-65
2022/05/23 06:36:29;;;;;;;;;;;;;;;21.58;34.32;99248.97;4439878;32;35240;-66
2022/05/23 06:38:56;;;;;;;;;;;;;;;21.18;33.87;99248.59;4442221;32;34599;-66
2022/05/23 06:41:28;;;;;;;;;;;;;;;21.16;33.92;99247.97;4435873;32;32803;-67
2022/05/23 06:43:57;;;;;;;;;;;;;;;21.55;34.37;99247.47;4440080;32;34014;-67
2022/05/23 06:46:29;;;;;;;;;;;;;;;21.50;34.15;99240.94;4440515;32;34482;-67
2022/05/23 06:48:59;;;;;;;;;;;;;;;21.54;33.81;99243.09;4445030;32;32975;-67
2022/05/23 06:51:29;;;;;;;;;;;;;;;21.56;33.43;99235.53;4443504;32;33253;-67
2022/05/23 06:53:57;;;;;;;;;;;;;;;21.24;33.68;99234.19;4442242;32;33028;-65
2022/05/23 06:56:28;;;;;;;;;;;;;;;21.25;34.16;99232.31;4437720;32;34684;-66
2022/05/23 06:58:56;;;;;;;;;;;;;;;21.38;33.65;99236.03;4442272;32;33179;-67
2022/05/23 07:01:24;;;;;;;;;;;;;;;21.59;33.83;99243.31;4435447;32;34324;-65
2022/05/23 07:03:55;;;;;;;;;;;;;;;21.51;33.60;99237.16;4438226;32;33813;-65
2022/05/23 07:14:43;;;;;;;;;;;;;;;21.82;33.59;99225.88;4439119;32;33751;-67
2022/05/23 07:17:11;;;;;;;;;;;;;;;21.85;32.82;99228.19;4437768;32;33235;-66
2022/05/23 07:19:45;;;;;;;;;;;;;;;21.90;33.21;99225.72;4436127;32;33759;-66
2022/05/23 07:22:13;;;;;;;;;;;;;;;22.06;33.87;99222.66;4439614;32;35101;-65
2022/05/23 07:24:41;;;;;;;;;;;;;;;21.80;33.04;99223.34;4443594;32;33744;-65
2022/05/23 07:27:12;;;;;;;;;;;;;;;21.86;32.49;99219.84;4436382;32;34433;-67
2022/05/23 07:29:40;;;;;;;;;;;;;;;21.93;32.17;99213.59;4435747;32;33120;-65
2022/05/23 07:32:11;;;;;;;;;;;;;;;21.42;33.49;99212.00;4439362;32;34719;-67
2022/05/23 07:34:40;;;;;;;;;;;;;;;21.83;32.64;99217.50;4441782;32;34411;-67
2022/05/23 07:37:09;;;;;;;;;;;;;;;22.27;31.87;99219.00;4437793;32;34646;-65
2022/05/23 07:39:37;;;;;;;;;;;;;;;22.48;32.32;99212.59;4437980;32;34416;-64
2022/05/23 07:42:07;;;;;;;;;;;;;;;22.71;31.74;99211.41;4434718;32;33524;-66
2022/05/23 07:44:36;;;;;;;;;;;;;;;22.77;30.39;99208.69;4435221;32;34125;-66
2022/05/23 07:47:06;;;;;;;;;;;;;;;22.56;31.27;99206.94;4437098;32;33959;-67
2022/05/23 07:49:34;;;;;;;;;;;;;;;22.91;31.18;99212.28;4440161;32;33564;-65
2022/05/23 07:52:04;;;;;;;;;;;;;;;22.84;31.44;99202.41;4435751;32;35402;-66
2022/05/23 08:02:55;;;;;;;;;;;;;;;22.92;31.33;99194.00;4440928;32;34092;-66
2022/05/23 08:05:23;;;;;;;;;;;;;;;23.20;30.38;99199.31;4435656;32;32872;-67
2022/05/23 08:07:51;;;;;;;;;;;;;;;23.01;31.56;99190.06;4439800;32;34864;-65
2022/05/23 08:10:20;;;;;;;;;;;;;;;23.08;30.82;99192.81;4438227;32;34685;-67
2022/05/23 08:12:50;;;;;;;;;;;;;;;23.34;29.10;99190.09;4440985;32;32904;-67
2022/05/23 08:15:22;;;;;;;;;;;;;;;23.60;29.33;99185.66;4440424;32;33604;-66
2022/05/23 08:17:50;;;;;;;;;;;;;;;23.57;27.83;99192.37;4437828;32;33919;-67
2022/05/23 08:20:23;;;;;;;;;;;;;;;23.44;28.10;99182.31;4439007;32;33232;-66
2022/05/23 08:22:55;;;;;;;;;;;;;;;23.34;28.86;99181.03;4438056;32;33025;-66
2022/05/23 08:25:25;;;;;;;;;;;;;;;22.96;28.86;99184.41;4440536;32;32914;-67
2022/05/23 08:27:53;;;;;;;;;;;;;;;23.19;29.81;99193.03;4437081;32;34485;-67
2022/05/23 08:30:21;;;;;;;;;;;;;;;23.22;29.85;99187.16;4441180;32;33555;-66
2022/05/23 08:32:53;;;;;;;;;;;;;;;23.24;29.49;99189.66;4437425;32;34070;-67
2022/05/23 08:35:24;;;;;;;;;;;;;;;23.33;29.17;99177.47;4435871;32;34439;-66
2022/05/23 08:37:54;;;;;;;;;;;;;;;22.90;29.18;99180.59;4435450;32;36383;-66
2022/05/23 08:40:28;;;;;;;;;;;;;;;23.01;30.13;99173.69;4444564;32;33687;-66
2022/05/23 08:42:57;;;;;;;;;;;;;;;22.61;29.45;99172.78;4445896;32;34375;-66
2022/05/23 08:45:30;;;;;;;;;;;;;;;23.38;29.06;99155.84;4439450;32;35644;-65
2022/05/23 08:48:11;;;;;;;;;;;;;;;23.62;28.24;99162.53;4439960;32;32959;-65
2022/05/23 08:50:43;;;;;;;;;;;;;;;23.64;28.74;99162.31;4441517;32;32758;-66
2022/05/23 08:53:12;;;;;;;;;;;;;;;23.46;29.85;99158.34;4440466;32;34316;-64
2022/05/23 08:55:42;;;;;;;;;;;;;;;23.42;29.71;99148.91;4441391;32;34294;-66
2022/05/23 08:58:24;;;;;;;;;;;;;;;23.21;29.75;99152.72;4442735;32;33773;-67
2022/05/23 09:00:54;;;;;;;;;;;;;;;23.38;29.26;99144.09;4438969;32;33292;-65
2022/05/23 09:03:38;;;;;;;;;;;;;;;23.45;29.06;99142.19;4438438;32;32398;-67
2022/05/23 09:06:08;;;;;;;;;;;;;;;22.91;29.74;99144.06;4438602;32;34078;-67
2022/05/23 09:08:50;;;;;;;;;;;;;;;23.54;28.30;99151.00;4442921;32;33327;-65
2022/05/23 09:11:18;;;;;;;;;;;;;;;23.91;27.63;99144.81;4434649;32;34193;-66
2022/05/23 09:13:46;;;;;;;;;;;;;;;23.96;27.23;99146.91;4440729;32;34160;-67
2022/05/23 09:16:14;;;;;;;;;;;;;;;23.63;26.91;99139.63;4444598;32;32553;-65
2022/05/23 09:18:51;;;;;;;;;;;;;;;22.99;28.81;99138.44;4439446;32;34518;-67
2022/05/23 09:21:19;;;;;;;;;;;;;;;23.76;28.36;99136.06;4435407;32;33352;-64
2022/05/23 09:23:51;;;;;;;;;;;;;;;23.72;28.95;99143.00;4437306;32;33147;-66
2022/05/23 09:26:29;;;;;;;;;;;;;;;24.08;28.92;99134.25;4443120;32;33491;-67
2022/05/23 09:28:58;;;;;;;;;;;;;;;24.35;28.87;99139.59;4438691;32;33307;-66
2022/05/23 09:31:35;;;;;;;;;;;;;;;24.28;27.89;99133.31;4436305;32;32476;-65
2022/05/23 09:34:04;;;;;;;;;;;;;;;24.23;28.53;99133.13;4437531;32;34473;-65
2022/05/23 09:36:36;;;;;;;;;;;;;;;24.17;28.38;99141.16;4437918;32;32636;-64
2022/05/23 09:39:08;;;;;;;;;;;;;;;24.81;26.83;99136.56;4439989;32;35495;-66
2022/05/23 09:47:45;;;;;;;;;;;;;;;25.08;27.15;99133.66;4438761;32;34212;-66
2022/05/23 09:50:33;;;;;;;;;;;;;;;25.15;26.12;99125.41;4441916;32;32768;-65
2022/05/23 09:53:17;;;;;;;;;;;;;;;25.04;26.07;99126.91;4437617;32;32358;-69
2022/05/23 09:55:47;;;;;;;;;;;;;;;25.61;25.23;99122.19;4438936;32;33060;-67
2022/05/23 09:58:22;;;;;;;;;;;;;;;25.49;26.54;99129.50;4441828;32;32166;-68
2022/05/23 10:00:58;;;;;;;;;;;;;;;25.85;26.22;99134.19;4441609;32;33076;-68
2022/05/23 10:03:27;;;;;;;;;;;;;;;26.08;25.10;99128.00;4439603;32;34755;-68
2022/05/23 10:06:11;;;;;;;;;;;;;;;26.05;26.02;99119.41;4441359;32;33623;-67
2022/05/23 10:08:43;;;;;;;;;;;;;;;26.11;25.46;99122.06;4442049;32;35377;-68
2022/05/23 10:11:18;;;;;;;;;;;;;;;25.68;25.74;99122.13;4440140;32;34185;-69
2022/05/23 10:13:50;;;;;;;;;;;;;;;25.85;25.56;99130.63;4440623;32;33881;-66
2022/05/23 10:16:18;;;;;;;;;;;;;;;26.20;24.66;99126.16;4427736;32;34607;-69
2022/05/23 10:18:49;;;;;;;;;;;;;;;26.56;24.42;99124.44;4436786;32;34053;-67
2022/05/23 10:21:26;;;;;;;;;;;;;;;26.79;23.50;99118.16;4438765;32;32570;-66
2022/05/23 10:24:02;;;;;;;;;;;;;;;26.94;23.87;99117.72;4441020;32;31904;-69
2022/05/23 10:26:33;;;;;;;;;;;;;;;26.86;23.77;99123.56;4438685;32;32938;-68
2022/05/23 10:29:10;;;;;;;;;;;;;;;27.00;23.51;99115.94;4439662;32;32554;-67
2022/05/23 10:31:42;;;;;;;;;;;;;;;26.82;23.13;99116.87;4440867;32;34577;-65
2022/05/23 10:34:10;;;;;;;;;;;;;;;26.83;23.65;99107.53;4430013;32;32459;-70
2022/05/23 10:36:38;;;;;;;;;;;;;;;26.84;23.88;99112.81;4447605;32;34287;-66
2022/05/23 10:42:18;;;;;;;;;;;;;;;26.53;23.58;99102.94;4440619;32;34446;-67
2022/05/23 10:44:48;;;;;;;;;;;;;;;26.36;24.15;99101.91;4441890;32;33881;-68
2022/05/23 10:47:26;;;;;;;;;;;;;;;26.06;24.15;99093.66;4438820;32;34038;-68
2022/05/23 10:50:11;;;;;;;;;;;;;;;26.62;23.75;99087.00;4441615;32;32770;-68
2022/05/23 10:52:52;;;;;;;;;;;;;;;25.98;23.77;99086.59;4442461;32;33003;-67
2022/05/23 10:55:22;;;;;;;;;;;;;;;26.86;23.42;99085.13;4427708;32;32226;-71
2022/05/23 10:57:56;;;;;;;;;;;;;;;27.02;23.26;99072.59;4439026;32;35195;-68
2022/05/23 11:00:27;;;;;;;;;;;;;;;26.73;23.60;99075.19;4442504;32;33977;-68
2022/05/23 11:03:18;;;;;;;;;;;;;;;27.15;23.58;99072.38;4440000;32;33785;-68
2022/05/23 11:05:46;;;;;;;;;;;;;;;27.28;23.08;99060.31;4440515;32;33920;-67
2022/05/23 11:08:35;;;;;;;;;;;;;;;27.30;22.90;99064.50;4437543;32;34035;-67
2022/05/23 11:11:05;;;;;;;;;;;;;;;26.91;23.13;99066.88;4440420;32;33209;-67
2022/05/23 11:13:36;;;;;;;;;;;;;;;26.75;22.37;99064.81;4445350;32;35824;-66
2022/05/23 11:16:16;;;;;;;;;;;;;;;26.51;24.20;99068.56;4443234;32;33501;-67
2022/05/23 11:18:49;;;;;;;;;;;;;;;26.97;22.60;99062.34;4440934;32;34275;-68
2022/05/23 11:21:32;;;;;;;;;;;;;;;27.26;22.64;99057.84;4439778;32;35264;-68
2022/05/23 11:24:03;;;;;;;;;;;;;;;27.09;22.56;99054.09;4436635;32;37081;-68
2022/05/23 11:26:33;;;;;;;;;;;;;;;26.81;22.67;99057.56;4440614;32;31968;-74
2022/05/23 11:34:37;;;;;;;;;;;;;;;26.70;22.52;99054.53;4441225;32;33220;-67
2022/05/23 11:39:54;;;;;;;;;;;;;;;26.08;23.04;99058.63;4437563;32;34475;-67
2022/05/23 11:42:29;;;;;;;;;;;;;;;26.56;22.80;99055.84;4439370;32;33080;-67
2022/05/23 11:47:56;;;;;;;;;;;;;;;26.64;24.58;99055.47;4440091;32;33703;-65
2022/05/23 11:50:26;;;;;;;;;;;;;;;26.00;24.80;99046.91;4439519;32;33475;-65
2022/05/23 11:53:03;;;;;;;;;;;;;;;26.34;24.29;99043.69;4437329;32;34461;-66
2022/05/23 11:55:50;;;;;;;;;;;;;;;25.99;25.10;99044.41;4441800;32;33562;-64
2022/05/23 11:58:18;;;;;;;;;;;;;;;25.33;25.47;99044.12;4436159;32;33291;-66
2022/05/23 12:01:01;;;;;;;;;;;;;;;25.83;24.58;99040.37;4442751;32;33870;-65
2022/05/23 12:03:47;;;;;;;;;;;;;;;26.19;24.83;99049.59;4437268;32;32737;-65
2022/05/23 12:06:17;;;;;;;;;;;;;;;26.51;24.39;99054.84;4440298;32;34818;-65
2022/05/23 12:08:57;;;;;;;;;;;;;;;26.30;24.57;99042.50;4443164;32;33072;-66
2022/05/23 12:11:26;;;;;;;;;;;;;;;25.60;25.04;99048.47;4441604;32;34882;-65
2022/05/23 12:13:58;;;;;;;;;;;;;;;25.77;26.13;99057.72;4440851;32;33877;-67
2022/05/23 12:16:32;;;;;;;;;;;;;;;26.53;25.28;99045.31;4442138;32;33209;-66
2022/05/23 12:19:27;;;;;;;;;;;;;;;25.74;25.88;99050.78;4441563;32;34690;-67
2022/05/23 12:22:14;;;;;;;;;;;;;;;25.83;24.88;99037.66;4438475;32;32977;-66
2022/05/23 12:24:56;;;;;;;;;;;;;;;26.15;24.95;99038.25;4412592;32;34458;-66
2022/05/23 12:27:35;;;;;;;;;;;;;;;26.48;24.59;99031.47;4442834;32;33759;-65
2022/05/23 12:30:24;;;;;;;;;;;;;;;26.33;23.99;99017.34;4442887;32;33278;-66
2022/05/23 12:32:58;;;;;;;;;;;;;;;26.47;24.01;99016.88;4443929;32;34108;-67
2022/05/23 12:35:32;;;;;;;;;;;;;;;26.94;23.72;99005.97;4445555;32;33796;-65
2022/05/23 12:38:01;;;;;;;;;;;;;;;26.49;24.56;99005.72;4442527;32;35553;-66
2022/05/23 12:40:38;;;;;;;;;;;;;;;26.15;25.48;99012.75;4430173;32;32084;-68
2022/05/23 12:43:13;;;;;;;;;;;;;;;25.61;25.71;99011.75;4440823;32;33394;-67
2022/05/23 12:45:57;;;;;;;;;;;;;;;25.02;26.26;99011.34;4437226;32;34322;-65
2022/05/23 12:48:43;;;;;;;;;;;;;;;25.65;25.07;99013.81;4441443;32;35257;-67
2022/05/23 12:51:11;;;;;;;;;;;;;;;26.50;24.27;98998.31;4443293;32;32240;-66
2022/05/23 12:53:43;;;;;;;;;;;;;;;26.51;24.26;98995.31;4439816;32;34313;-67
2022/05/23 12:56:24;;;;;;;;;;;;;;;26.71;24.23;98989.50;4439471;32;32696;-67
2022/05/23 12:59:06;;;;;;;;;;;;;;;26.60;23.94;98993.91;4440146;32;34527;-64
2022/05/23 13:01:35;;;;;;;;;;;;;;;26.19;24.31;98989.25;4443821;32;34066;-66
2022/05/23 13:04:06;;;;;;;;;;;;;;;26.75;23.94;98996.19;4447263;32;33122;-66
2022/05/23 13:06:44;;;;;;;;;;;;;;;26.47;24.28;98980.37;4444440;32;34359;-66
2022/05/23 13:09:16;;;;;;;;;;;;;;;26.74;25.28;98977.19;4439935;32;35287;-67
2022/05/23 13:11:54;;;;;;;;;;;;;;;26.40;24.41;98968.69;4445778;32;31989;-66
2022/05/23 13:14:22;;;;;;;;;;;;;;;26.52;24.44;98961.34;4442649;32;33851;-66
2022/05/23 13:16:55;;;;;;;;;;;;;;;27.27;23.64;98957.84;4443958;32;32619;-65
2022/05/23 13:22:12;;;;;;;;;;;;;;;26.71;24.17;98962.06;4446888;32;32230;-66
2022/05/23 13:24:50;;;;;;;;;;;;;;;26.74;24.81;98960.72;4444973;32;34102;-66
2022/05/23 13:27:25;;;;;;;;;;;;;;;26.82;25.23;98957.63;4446617;32;34254;-66
2022/05/23 13:29:55;;;;;;;;;;;;;;;26.99;24.25;98955.00;4445425;32;34580;-65
2022/05/23 13:32:24;;;;;;;;;;;;;;;27.08;24.08;98954.38;4442628;32;32806;-67
2022/05/23 13:34:52;;;;;;;;;;;;;;;27.54;23.22;98947.13;4453448;32;32971;-65
2022/05/23 13:37:26;;;;;;;;;;;;;;;27.51;23.51;98938.53;4452155;32;35499;-65
2022/05/23 13:39:54;;;;;;;;;;;;;;;27.31;24.32;98950.78;4435086;32;32874;-64
2022/05/23 13:42:24;;;;;;;;;;;;;;;27.14;23.89;98939.72;4440722;32;33802;-67
2022/05/23 13:44:52;;;;;;;;;;;;;;;26.77;24.56;98941.03;4450661;32;32995;-67
2022/05/23 13:47:27;;;;;;;;;;;;;;;27.29;24.02;98936.47;4452602;32;34727;-66
2022/05/23 13:50:08;;;;;;;;;;;;;;;27.54;22.95;98932.53;4449637;32;32879;-67
2022/05/23 13:52:39;;;;;;;;;;;;;;;27.53;23.67;98936.38;4447741;32;33731;-67
2022/05/23 13:55:09;;;;;;;;;;;;;;;27.69;23.51;98926.53;4444294;32;33654;-68
2022/05/23 13:57:40;;;;;;;;;;;;;;;27.63;24.03;98942.06;4445361;32;33964;-67
2022/05/23 14:00:34;;;;;;;;;;;;;;;27.29;24.25;98935.63;4444447;32;34432;-68
2022/05/23 14:03:04;;;;;;;;;;;;;;;27.37;23.82;98929.75;4444350;32;34704;-66
2022/05/23 14:05:33;;;;;;;;;;;;;;;27.22;24.39;98929.44;4454730;32;33949;-66
2022/05/23 14:08:01;;;;;;;;;;;;;;;27.49;24.02;98927.81;4445848;32;34467;-65
2022/05/23 14:10:29;;;;;;;;;;;;;;;27.44;23.99;98927.69;4442876;32;35409;-66